createdAt,value
2019-05-09T00:01:34.777Z,98479.91
2019-05-09T00:04:03.573Z,98473.20
2019-05-09T00:06:33.953Z,98469.79
2019-05-09T00:09:03.709Z,98468.09
2019-05-09T00:11:33.511Z,98460.69
2019-05-09T00:14:04.498Z,98460.33
2019-05-09T00:16:33.595Z,98465.06
2019-05-09T00:19:03.296Z,98451.33
2019-05-09T00:21:33.904Z,98457.39
2019-05-09T00:24:03.508Z,98455.05
2019-05-09T00:26:33.905Z,98444.06
2019-05-09T00:29:10.234Z,98448.62
2019-05-09T00:31:40.734Z,98437.63
2019-05-09T00:34:14.429Z,98434.14
2019-05-09T00:36:43.789Z,98427.80
2019-05-09T00:39:13.389Z,98431.03
2019-05-09T00:41:43.522Z,98433.88
2019-05-09T00:44:26.056Z,98436.89
2019-05-09T00:46:56.413Z,98420.94
2019-05-09T00:49:26.828Z,98426.89
2019-05-09T00:51:55.594Z,98423.77
2019-05-09T00:54:24.450Z,98425.54
2019-05-09T00:56:53.956Z,98416.41
2019-05-09T00:59:24.121Z,98422.27
2019-05-09T01:01:54.359Z,98418.09
2019-05-09T01:04:24.162Z,98417.08
2019-05-09T01:06:53.980Z,98413.36
2019-05-09T01:09:24.176Z,98420.07
2019-05-09T01:11:53.524Z,98414.94
2019-05-09T01:14:23.415Z,98417.08
2019-05-09T01:16:53.515Z,98418.47
2019-05-09T01:19:23.337Z,98411.48
2019-05-09T01:21:54.260Z,98407.81
2019-05-09T01:24:23.337Z,98410.63
2019-05-09T01:26:54.154Z,98406.06
2019-05-09T01:29:23.159Z,98407.98
2019-05-09T01:31:54.148Z,98403.33
2019-05-09T01:34:24.640Z,98406.43
2019-05-09T01:37:14.084Z,98403.41
2019-05-09T01:39:44.055Z,98398.80
2019-05-09T01:42:13.762Z,98399.64
2019-05-09T01:44:44.055Z,98398.28
2019-05-09T01:47:14.064Z,98397.58
2019-05-09T01:49:43.256Z,98385.83
2019-05-09T01:52:13.751Z,98380.91
2019-05-09T01:54:43.922Z,98383.66
2019-05-09T01:57:13.873Z,98387.72
2019-05-09T01:59:44.315Z,98380.91
2019-05-09T02:02:14.237Z,98379.69
2019-05-09T02:04:43.962Z,98377.52
2019-05-09T02:07:13.459Z,98370.11
2019-05-09T02:09:43.414Z,98375.89
2019-05-09T02:12:14.121Z,98367.09
2019-05-09T02:15:03.873Z,98359.12
2019-05-09T02:17:58.872Z,98365.91
2019-05-09T02:20:21.372Z,98361.05
2019-05-09T02:22:50.150Z,98364.46
2019-05-09T02:25:18.999Z,98359.28
2019-05-09T02:27:47.759Z,98359.48
2019-05-09T02:30:16.701Z,98358.16
2019-05-09T02:32:45.534Z,98352.94
2019-05-09T02:35:15.153Z,98349.53
2019-05-09T02:37:44.013Z,98352.09
2019-05-09T02:40:13.289Z,98349.84
2019-05-09T02:42:42.182Z,98362.33
2019-05-09T02:45:11.476Z,98347.72
2019-05-09T02:47:40.292Z,98349.61
2019-05-09T02:50:10.263Z,98347.61
2019-05-09T02:52:39.937Z,98343.19
2019-05-09T02:55:10.149Z,98342.14
2019-05-09T02:57:39.366Z,98342.45
2019-05-09T03:00:22.020Z,98341.81
2019-05-09T03:02:52.440Z,98335.39
2019-05-09T03:05:21.221Z,98331.53
2019-05-09T03:07:50.000Z,98333.98
2019-05-09T03:10:20.045Z,98326.20
2019-05-09T03:12:50.246Z,98332.27
2019-05-09T03:15:19.856Z,98335.55
2019-05-09T03:17:49.677Z,98326.92
2019-05-09T03:20:28.904Z,98324.23
2019-05-09T03:22:58.359Z,98322.06
2019-05-09T03:25:28.945Z,98327.13
2019-05-09T03:28:09.646Z,98323.87
2019-05-09T03:30:49.830Z,98323.16
2019-05-09T03:33:20.097Z,98321.30
2019-05-09T03:35:48.176Z,98329.56
2019-05-09T03:38:17.950Z,98318.77
2019-05-09T03:40:47.679Z,98320.73
2019-05-09T03:43:18.403Z,98320.34
2019-05-09T03:45:51.772Z,98321.73
2019-05-09T03:48:31.460Z,98322.47
2019-05-09T03:51:00.279Z,98320.92
2019-05-09T03:53:29.031Z,98321.77
2019-05-09T03:55:59.398Z,98318.92
2019-05-09T03:58:28.265Z,98320.33
2019-05-09T04:00:58.032Z,98322.73
2019-05-09T04:03:27.686Z,98318.84
2019-05-09T04:06:02.590Z,98313.66
2019-05-09T04:08:28.237Z,98319.16
2019-05-09T04:10:58.658Z,98311.23
2019-05-09T04:13:29.291Z,98318.53
2019-05-09T04:15:58.340Z,98314.25
2019-05-09T04:18:27.758Z,98316.98
2019-05-09T04:20:57.419Z,98313.72
2019-05-09T04:23:27.579Z,98311.69
2019-05-09T04:26:04.294Z,98316.73
2019-05-09T04:28:33.118Z,98307.61
2019-05-09T04:31:01.857Z,98312.05
2019-05-09T04:33:30.631Z,98310.56
2019-05-09T04:35:59.431Z,98319.83
2019-05-09T04:38:28.191Z,98313.45
2019-05-09T04:40:58.346Z,98319.79
2019-05-09T04:43:35.761Z,98320.78
2019-05-09T04:45:59.479Z,98322.17
2019-05-09T04:48:32.582Z,98321.63
2019-05-09T04:51:03.956Z,98313.34
2019-05-09T04:53:33.531Z,98317.49
2019-05-09T04:56:04.130Z,98319.66
2019-05-09T04:58:32.919Z,98323.09
2019-05-09T05:01:09.192Z,98322.78
2019-05-09T05:03:38.571Z,98320.73
2019-05-09T05:06:07.710Z,98325.25
2019-05-09T05:08:37.540Z,98323.75
2019-05-09T05:11:07.471Z,98321.11
2019-05-09T05:13:38.360Z,98327.95
2019-05-09T05:16:08.316Z,98320.28
2019-05-09T05:18:37.499Z,98327.59
2019-05-09T05:21:07.815Z,98322.00
2019-05-09T05:23:38.479Z,98327.03
2019-05-09T05:26:09.203Z,98336.00
2019-05-09T05:28:38.242Z,98327.95
2019-05-09T05:31:07.469Z,98332.94
2019-05-09T05:33:57.774Z,98338.14
2019-05-09T05:36:28.002Z,98331.88
2019-05-09T05:38:58.445Z,98340.77
2019-05-09T05:41:28.482Z,98341.11
2019-05-09T05:43:58.127Z,98347.70
2019-05-09T05:46:48.311Z,98337.52
2019-05-09T05:49:15.632Z,98331.71
2019-05-09T05:51:50.221Z,98336.69
2019-05-09T05:54:20.269Z,98335.55
2019-05-09T05:56:49.234Z,98338.66
2019-05-09T05:59:18.410Z,98336.28
2019-05-09T06:01:47.922Z,98331.78
2019-05-09T06:04:18.601Z,98320.28
2019-05-09T06:06:48.040Z,98332.16
2019-05-09T06:09:18.929Z,98333.48
2019-05-09T06:11:48.529Z,98331.01
2019-05-09T06:14:18.473Z,98335.89
2019-05-09T06:16:48.584Z,98331.75
2019-05-09T06:19:18.218Z,98329.89
2019-05-09T06:21:48.539Z,98339.91
2019-05-09T06:24:17.995Z,98331.14
2019-05-09T06:26:47.927Z,98331.23
2019-05-09T06:29:17.777Z,98327.48
2019-05-09T06:31:48.362Z,98331.68
2019-05-09T06:34:18.682Z,98331.52
2019-05-09T06:36:48.881Z,98333.61
2019-05-09T06:39:18.106Z,98328.39
2019-05-09T06:41:48.296Z,98326.13
2019-05-09T06:44:31.172Z,98339.67
2019-05-09T06:47:04.553Z,98337.41
2019-05-09T06:49:34.899Z,98336.09
2019-05-09T06:52:03.650Z,98332.80
2019-05-09T06:54:32.411Z,98333.95
2019-05-09T06:57:01.212Z,98328.59
2019-05-09T06:59:29.979Z,98324.52
2019-05-09T07:02:00.291Z,98329.34
2019-05-09T07:04:33.379Z,98331.23
2019-05-09T07:07:07.983Z,98334.83
2019-05-09T07:09:38.539Z,98334.28
2019-05-09T07:12:07.863Z,98329.91
2019-05-09T07:14:40.980Z,98331.81
2019-05-09T07:17:08.448Z,98333.48
2019-05-09T07:19:38.287Z,98340.25
2019-05-09T07:22:21.310Z,98336.02
2019-05-09T07:25:10.683Z,98337.78
2019-05-09T07:27:41.539Z,98334.94
2019-05-09T07:30:12.651Z,98338.32
2019-05-09T07:32:54.991Z,98331.52
2019-05-09T07:35:23.873Z,98337.20
2019-05-09T07:37:52.611Z,98340.66
2019-05-09T07:40:21.412Z,98332.80
2019-05-09T07:42:50.159Z,98325.47
2019-05-09T07:45:18.981Z,98340.08
2019-05-09T07:47:48.070Z,98344.72
2019-05-09T07:50:18.898Z,98333.89
2019-05-09T07:52:48.062Z,98329.52
2019-05-09T07:55:17.990Z,98329.69
2019-05-09T07:57:54.702Z,98329.14
2019-05-09T08:00:20.568Z,98327.58
2019-05-09T08:02:49.324Z,98331.09
2019-05-09T08:05:21.032Z,98329.66
2019-05-09T08:07:49.831Z,98323.91
2019-05-09T08:10:18.619Z,98327.68
2019-05-09T08:12:48.099Z,98333.20
2019-05-09T08:15:20.056Z,98337.41
2019-05-09T08:17:48.806Z,98340.25
2019-05-09T08:20:17.843Z,98343.09
2019-05-09T08:22:57.402Z,98338.16
2019-05-09T08:25:18.339Z,98333.89
2019-05-09T08:27:48.263Z,98336.16
2019-05-09T08:30:18.058Z,98330.44
2019-05-09T08:32:48.197Z,98337.29
2019-05-09T08:35:18.324Z,98338.70
2019-05-09T08:37:47.783Z,98340.68
2019-05-09T08:40:21.065Z,98346.67
2019-05-09T08:42:48.051Z,98344.88
2019-05-09T08:45:25.311Z,98340.66
2019-05-09T08:47:48.499Z,98344.84
2019-05-09T08:50:39.034Z,98347.63
2019-05-09T08:53:08.312Z,98342.91
2019-05-09T08:55:38.337Z,98347.08
2019-05-09T08:58:08.149Z,98347.85
2019-05-09T09:00:39.110Z,98341.08
2019-05-09T09:03:08.115Z,98338.08
2019-05-09T09:05:38.062Z,98345.03
2019-05-09T09:08:08.255Z,98340.33
2019-05-09T09:10:38.528Z,98345.31
2019-05-09T09:13:08.948Z,98343.92
2019-05-09T09:15:58.064Z,98331.73
2019-05-09T09:18:09.332Z,98339.95
2019-05-09T09:20:38.361Z,98344.20
2019-05-09T09:23:08.864Z,98336.33
2019-05-09T09:25:39.056Z,98328.98
2019-05-09T09:28:08.920Z,98334.63
2019-05-09T09:30:38.741Z,98336.06
2019-05-09T09:33:11.419Z,98333.48
2019-05-09T09:35:38.558Z,98327.20
2019-05-09T09:38:09.324Z,98332.94
2019-05-09T09:40:38.659Z,98331.89
2019-05-09T09:43:09.308Z,98336.14
2019-05-09T09:45:38.228Z,98334.53
2019-05-09T09:48:08.955Z,98327.26
2019-05-09T09:50:38.399Z,98331.04
2019-05-09T09:53:08.791Z,98335.11
2019-05-09T09:55:38.547Z,98329.16
2019-05-09T09:58:08.258Z,98322.74
2019-05-09T10:00:58.421Z,98318.88
2019-05-09T10:03:26.851Z,98314.66
2019-05-09T10:05:57.746Z,98314.19
2019-05-09T10:08:26.131Z,98313.63
2019-05-09T10:10:54.951Z,98315.50
2019-05-09T10:13:23.731Z,98312.87
2019-05-09T10:15:54.137Z,98307.98
2019-05-09T10:18:40.531Z,98323.61
2019-05-09T10:21:10.872Z,98327.58
2019-05-09T10:23:39.691Z,98319.47
2019-05-09T10:26:08.736Z,98326.48
2019-05-09T10:28:38.113Z,98318.52
2019-05-09T10:31:07.071Z,98318.80
2019-05-09T10:33:37.519Z,98325.31
2019-05-09T10:36:08.525Z,98313.42
2019-05-09T10:38:38.539Z,98319.25
2019-05-09T10:41:10.974Z,98314.18
2019-05-09T10:43:39.901Z,98319.07
2019-05-09T10:46:19.646Z,98316.06
2019-05-09T10:48:50.198Z,98313.12
2019-05-09T10:51:18.951Z,98309.27
2019-05-09T10:53:48.251Z,98311.73
2019-05-09T10:56:18.740Z,98297.62
2019-05-09T10:58:48.379Z,98292.48
2019-05-09T11:01:18.539Z,98294.63
2019-05-09T11:03:48.378Z,98284.09
2019-05-09T11:06:18.409Z,98279.59
2019-05-09T11:08:47.983Z,98275.34
2019-05-09T11:11:18.329Z,98276.11
2019-05-09T11:13:48.211Z,98275.55
2019-05-09T11:16:18.401Z,98283.85
2019-05-09T11:18:48.478Z,98280.20
2019-05-09T11:21:19.274Z,98270.57
2019-05-09T11:23:48.837Z,98278.88
2019-05-09T11:26:18.353Z,98287.34
2019-05-09T11:28:47.351Z,98286.47
2019-05-09T11:31:18.469Z,98288.55
2019-05-09T11:33:48.464Z,98280.99
2019-05-09T11:36:20.817Z,98280.67
2019-05-09T11:38:49.583Z,98289.88
2019-05-09T11:41:19.299Z,98289.19
2019-05-09T11:43:48.856Z,98294.90
2019-05-09T11:46:18.330Z,98282.33
2019-05-09T11:48:47.395Z,98281.90
2019-05-09T11:51:20.527Z,98277.48
2019-05-09T11:53:48.661Z,98282.02
2019-05-09T11:56:18.014Z,98277.66
2019-05-09T11:58:48.183Z,98278.02
2019-05-09T12:01:18.982Z,98272.66
2019-05-09T12:03:51.946Z,98274.86
2019-05-09T12:06:19.990Z,98276.36
2019-05-09T12:08:49.091Z,98278.38
2019-05-09T12:11:18.585Z,98284.32
2019-05-09T12:13:48.538Z,98280.01
2019-05-09T12:16:18.753Z,98291.16
2019-05-09T12:18:48.889Z,98283.05
2019-05-09T12:21:19.036Z,98284.13
2019-05-09T12:23:49.064Z,98285.69
2019-05-09T12:26:18.699Z,98283.56
2019-05-09T12:28:48.273Z,98285.08
2019-05-09T12:31:18.181Z,98288.69
2019-05-09T12:33:48.260Z,98291.06
2019-05-09T12:36:19.266Z,98285.63
2019-05-09T12:38:49.790Z,98274.97
2019-05-09T12:41:19.249Z,98274.31
2019-05-09T12:43:48.152Z,98278.74
2019-05-09T12:46:16.931Z,98277.59
2019-05-09T12:48:47.927Z,98278.84
2019-05-09T12:51:18.395Z,98281.64
2019-05-09T12:53:48.423Z,98277.59
2019-05-09T12:56:18.667Z,98285.45
2019-05-09T12:58:47.914Z,98279.82
2019-05-09T13:01:18.788Z,98278.25
2019-05-09T13:03:48.470Z,98277.98
2019-05-09T13:06:20.261Z,98278.47
2019-05-09T13:08:48.169Z,98276.42
2019-05-09T13:11:18.968Z,98287.45
2019-05-09T13:13:48.124Z,98280.09
2019-05-09T13:16:21.579Z,98284.05
2019-05-09T13:19:04.004Z,98286.70
2019-05-09T13:21:33.359Z,98283.34
2019-05-09T13:24:02.477Z,98278.06
2019-05-09T13:26:31.355Z,98278.98
2019-05-09T13:29:00.148Z,98279.82
2019-05-09T13:31:30.056Z,98277.20
2019-05-09T13:33:58.815Z,98278.83
2019-05-09T13:36:28.410Z,98281.20
2019-05-09T13:39:04.342Z,98277.34
2019-05-09T13:41:28.175Z,98275.44
2019-05-09T13:43:59.313Z,98271.08
2019-05-09T13:46:28.295Z,98275.60
2019-05-09T13:49:10.990Z,98279.44
2019-05-09T13:51:27.836Z,98270.79
2019-05-09T13:53:59.062Z,98264.55
2019-05-09T13:56:28.013Z,98271.36
2019-05-09T13:58:58.192Z,98268.61
2019-05-09T14:01:27.216Z,98265.42
2019-05-09T14:03:57.680Z,98270.03
2019-05-09T14:06:27.761Z,98271.84
2019-05-09T14:08:59.455Z,98265.28
2019-05-09T14:11:29.110Z,98264.52
2019-05-09T14:13:57.835Z,98262.78
2019-05-09T14:16:28.642Z,98266.77
2019-05-09T14:19:04.032Z,98267.83
2019-05-09T14:21:29.729Z,98268.67
2019-05-09T14:24:10.913Z,98267.70
2019-05-09T14:26:29.135Z,98275.61
2019-05-09T14:28:58.346Z,98275.64
2019-05-09T14:31:32.141Z,98276.48
2019-05-09T14:33:57.698Z,98275.22
2019-05-09T14:36:27.760Z,98273.48
2019-05-09T14:38:57.981Z,98276.33
2019-05-09T14:41:27.881Z,98276.67
2019-05-09T14:43:56.735Z,98280.04
2019-05-09T14:46:25.536Z,98276.67
2019-05-09T14:48:54.297Z,98280.61
2019-05-09T14:51:23.116Z,98282.57
2019-05-09T14:53:51.882Z,98287.44
2019-05-09T14:56:20.655Z,98289.33
2019-05-09T14:58:49.435Z,98294.34
2019-05-09T15:01:19.305Z,98290.56
2019-05-09T15:03:48.627Z,98286.52
2019-05-09T15:06:18.266Z,98279.42
2019-05-09T15:08:48.243Z,98286.52
2019-05-09T15:11:18.100Z,98284.99
2019-05-09T15:13:47.805Z,98280.62
2019-05-09T15:16:18.390Z,98280.81
2019-05-09T15:18:48.635Z,98283.47
2019-05-09T15:21:19.165Z,98286.51
2019-05-09T15:23:48.331Z,98282.46
2019-05-09T15:26:17.770Z,98281.91
2019-05-09T15:28:48.392Z,98282.12
2019-05-09T15:31:18.349Z,98282.53
2019-05-09T15:33:48.654Z,98283.44
2019-05-09T15:36:19.201Z,98287.16
2019-05-09T15:38:48.741Z,98278.91
2019-05-09T15:41:18.361Z,98277.52
2019-05-09T15:43:48.513Z,98282.00
2019-05-09T15:46:19.176Z,98281.34
2019-05-09T15:48:47.975Z,98278.50
2019-05-09T15:51:17.975Z,98284.72
2019-05-09T15:53:48.693Z,98282.46
2019-05-09T15:56:18.780Z,98287.84
2019-05-09T15:58:49.020Z,98293.52
2019-05-09T16:01:18.447Z,98294.30
2019-05-09T16:03:48.531Z,98293.78
2019-05-09T16:06:19.889Z,98297.16
2019-05-09T16:08:48.237Z,98299.93
2019-05-09T16:11:18.005Z,98300.89
2019-05-09T16:13:47.952Z,98303.55
2019-05-09T16:16:17.566Z,98312.88
2019-05-09T16:18:48.569Z,98309.95
2019-05-09T16:21:17.156Z,98319.68
2019-05-09T16:23:48.500Z,98314.95
2019-05-09T16:26:18.135Z,98312.99
2019-05-09T16:28:48.816Z,98313.15
2019-05-09T16:31:17.755Z,98314.91
2019-05-09T16:33:47.748Z,98317.56
2019-05-09T16:36:17.533Z,98313.59
2019-05-09T16:38:48.971Z,98314.47
2019-05-09T16:41:18.539Z,98311.89
2019-05-09T16:43:48.038Z,98311.82
2019-05-09T16:46:18.125Z,98319.73
2019-05-09T16:48:47.603Z,98322.57
2019-05-09T16:51:18.203Z,98323.22
2019-05-09T16:53:49.563Z,98319.36
2019-05-09T16:56:18.067Z,98320.36
2019-05-09T16:58:46.956Z,98319.78
2019-05-09T17:01:18.598Z,98319.94
2019-05-09T17:03:47.017Z,98322.64
2019-05-09T17:06:18.269Z,98323.58
2019-05-09T17:08:47.557Z,98320.14
2019-05-09T17:11:19.232Z,98322.95
2019-05-09T17:13:46.959Z,98319.76
2019-05-09T17:16:17.683Z,98320.96
2019-05-09T17:18:48.476Z,98320.12
2019-05-09T17:21:21.513Z,98316.86
2019-05-09T17:23:49.355Z,98321.17
2019-05-09T17:26:18.975Z,98327.80
2019-05-09T17:28:48.518Z,98323.44
2019-05-09T17:31:18.221Z,98324.67
2019-05-09T17:33:48.573Z,98325.09
2019-05-09T17:36:18.186Z,98325.22
2019-05-09T17:38:47.931Z,98317.50
2019-05-09T17:41:17.747Z,98321.69
2019-05-09T17:43:47.456Z,98322.59
2019-05-09T17:46:18.989Z,98321.17
2019-05-09T17:48:47.987Z,98326.33
2019-05-09T17:51:25.918Z,98327.28
2019-05-09T17:53:51.770Z,98330.54
2019-05-09T17:56:18.216Z,98325.08
2019-05-09T17:58:48.543Z,98320.67
2019-05-09T18:01:18.170Z,98323.64
2019-05-09T18:03:48.091Z,98326.41
2019-05-09T18:06:19.122Z,98327.34
2019-05-09T18:08:48.415Z,98326.62
2019-05-09T18:11:17.621Z,98330.47
2019-05-09T18:13:48.069Z,98330.39
2019-05-09T18:16:18.951Z,98329.84
2019-05-09T18:18:48.458Z,98328.16
2019-05-09T18:21:17.894Z,98335.67
2019-05-09T18:23:47.886Z,98333.95
2019-05-09T18:26:18.538Z,98328.45
2019-05-09T18:28:47.980Z,98326.28
2019-05-09T18:31:17.001Z,98324.31
2019-05-09T18:33:50.134Z,98323.59
2019-05-09T18:36:18.938Z,98327.09
2019-05-09T18:38:48.132Z,98326.00
2019-05-09T18:41:17.780Z,98326.03
2019-05-09T18:43:47.967Z,98332.00
2019-05-09T18:46:17.927Z,98334.02
2019-05-09T18:48:47.538Z,98336.73
2019-05-09T18:51:16.417Z,98339.88
2019-05-09T18:53:45.239Z,98339.04
2019-05-09T18:56:14.079Z,98344.47
2019-05-09T18:58:42.936Z,98339.13
2019-05-09T19:01:11.796Z,98340.36
2019-05-09T19:03:40.695Z,98339.63
2019-05-09T19:06:09.535Z,98343.58
2019-05-09T19:08:38.355Z,98346.59
2019-05-09T19:11:07.393Z,98350.30
2019-05-09T19:13:36.241Z,98349.27
2019-05-09T19:16:09.535Z,98353.88
2019-05-09T19:18:42.757Z,98349.09
2019-05-09T19:21:16.082Z,98349.05
2019-05-09T19:23:44.955Z,98353.67
2019-05-09T19:26:31.857Z,98353.09
2019-05-09T19:29:00.697Z,98365.02
2019-05-09T19:31:29.495Z,98361.22
2019-05-09T19:33:58.357Z,98370.31
2019-05-09T19:36:27.178Z,98371.44
2019-05-09T19:38:56.015Z,98371.76
2019-05-09T19:41:24.808Z,98373.92
2019-05-09T19:43:53.616Z,98383.78
2019-05-09T19:46:22.457Z,98372.22
2019-05-09T19:48:51.322Z,98371.09
2019-05-09T19:51:20.243Z,98367.66
2019-05-09T19:53:49.095Z,98368.08
2019-05-09T19:56:17.938Z,98369.66
2019-05-09T19:58:46.775Z,98360.61
2019-05-09T20:01:15.656Z,98365.45
2019-05-09T20:03:44.477Z,98369.43
2019-05-09T20:06:16.460Z,98377.85
2019-05-09T20:08:44.054Z,98377.30
2019-05-09T20:11:23.743Z,98370.63
2019-05-09T20:13:59.796Z,98366.65
2019-05-09T20:16:42.796Z,98370.63
2019-05-09T20:19:11.655Z,98378.45
2019-05-09T20:21:40.397Z,98379.30
2019-05-09T20:24:09.492Z,98380.25
2019-05-09T20:26:38.417Z,98374.78
2019-05-09T20:29:07.178Z,98375.63
2019-05-09T20:31:35.961Z,98374.97
2019-05-09T20:34:05.205Z,98379.04
2019-05-09T20:36:33.990Z,98371.00
2019-05-09T20:39:02.928Z,98370.92
2019-05-09T20:41:31.899Z,98366.66
2019-05-09T20:44:00.857Z,98368.46
2019-05-09T20:46:29.881Z,98371.77
2019-05-09T20:48:58.856Z,98375.94
2019-05-09T20:51:27.816Z,98378.18
2019-05-09T20:53:56.816Z,98378.95
2019-05-09T20:56:25.775Z,98379.25
2019-05-09T20:58:54.777Z,98380.94
2019-05-09T21:01:23.736Z,98380.82
2019-05-09T21:04:00.053Z,98379.61
2019-05-09T21:06:23.421Z,98381.02
2019-05-09T21:08:52.356Z,98383.28
2019-05-09T21:11:21.297Z,98389.28
2019-05-09T21:13:50.298Z,98389.20
2019-05-09T21:16:19.258Z,98383.61
2019-05-09T21:18:48.218Z,98390.03
2019-05-09T21:21:17.215Z,98388.54
2019-05-09T21:23:46.156Z,98393.63
2019-05-09T21:26:15.095Z,98394.76
2019-05-09T21:28:44.077Z,98404.20
2019-05-09T21:31:13.015Z,98401.41
2019-05-09T21:33:42.015Z,98405.84
2019-05-09T21:36:10.756Z,98405.29
2019-05-09T21:38:39.539Z,98401.83
2019-05-09T21:41:08.376Z,98402.30
2019-05-09T21:43:37.157Z,98405.50
2019-05-09T21:46:05.917Z,98410.42
2019-05-09T21:48:38.031Z,98415.20
2019-05-09T21:51:05.231Z,98408.31
2019-05-09T21:53:41.111Z,98409.44
2019-05-09T21:56:04.579Z,98402.83
2019-05-09T21:58:33.315Z,98406.02
2019-05-09T22:01:02.539Z,98406.77
2019-05-09T22:03:31.296Z,98405.79
2019-05-09T22:06:00.057Z,98404.73
2019-05-09T22:08:28.855Z,98400.68
2019-05-09T22:10:57.601Z,98393.47
2019-05-09T22:13:26.427Z,98400.92
2019-05-09T22:15:55.278Z,98393.00
2019-05-09T22:18:24.036Z,98401.42
2019-05-09T22:20:52.855Z,98396.57
2019-05-09T22:23:21.615Z,98398.64
2019-05-09T22:25:50.357Z,98402.14
2019-05-09T22:28:19.135Z,98398.91
2019-05-09T22:30:47.895Z,98399.45
2019-05-09T22:33:16.758Z,98401.66
2019-05-09T22:35:45.496Z,98399.59
2019-05-09T22:38:14.218Z,98408.20
2019-05-09T22:40:43.055Z,98403.81
2019-05-09T22:43:11.777Z,98406.26
2019-05-09T22:45:40.655Z,98396.37
2019-05-09T22:48:09.434Z,98397.92
2019-05-09T22:50:38.156Z,98397.03
2019-05-09T22:53:06.975Z,98393.95
2019-05-09T22:55:35.714Z,98397.29
2019-05-09T22:58:04.559Z,98400.70
2019-05-09T23:00:33.375Z,98398.61
2019-05-09T23:03:02.135Z,98404.12
2019-05-09T23:05:30.935Z,98406.98
2019-05-09T23:07:59.695Z,98400.64
2019-05-09T23:10:28.455Z,98404.21
2019-05-09T23:12:57.257Z,98405.30
2019-05-09T23:15:25.976Z,98406.24
2019-05-09T23:17:54.715Z,98400.13
2019-05-09T23:20:33.976Z,98403.98
2019-05-09T23:23:04.298Z,98400.64
2019-05-09T23:25:33.115Z,98399.26
2019-05-09T23:28:01.877Z,98401.95
2019-05-09T23:30:30.640Z,98399.73
2019-05-09T23:32:59.416Z,98391.45
2019-05-09T23:35:28.156Z,98390.02
2019-05-09T23:37:56.957Z,98385.70
2019-05-09T23:40:25.715Z,98390.59
2019-05-09T23:42:54.435Z,98385.72
2019-05-09T23:45:23.275Z,98391.85
2019-05-09T23:47:52.034Z,98385.75
2019-05-09T23:50:20.755Z,98390.94
2019-05-09T23:52:49.554Z,98390.56
2019-05-09T23:55:36.696Z,98399.78
2019-05-09T23:58:23.475Z,98401.63
